Springstead, Wisconsin
Current Conditions -  °F | °C
As of 11:35 PM on Sunday 21 Dec 2014 (Local Time) from KPBH Reporting Station
Moderate Rain Moderate Rain  
Wind Chill: 24°   Ceiling: 300
Heat Index: 33°   Visibility: 2.5mi
Dew Point: 33°   Wind: 10mph
Humidity: 100%   Direction: 170°S
Pressure: 29.8"   Gusts: NA
Location:  45.9599°N, 90.2362°W
Report Text: KPBH 220535Z AUTO 17009KT 2 1/2SM RA OVC003 00/00 A2980 RMK AO2 T00030003
Loading
Personal Weather Stations






























Interactive Weather Map New forecast layout! Learn more

10-Day Weather Forecast

Advertisements
Track Severe Weather on mobile